Time;durP1;ratioP1;P1;durP2;ratioP2;P2;SDS_P1;SDS_P2;PMS_P1;PMS_P2;Temp;Humidity;BMP_temperature;BMP_pressure;BME280_temperature;BME280_humidity;BME280_pressure;Samples;Min_cycle;Max_cycle;Signal;HPM_P1;HPM_P2
2021/12/23 00:01:09;;;;;;;59.78;25.67;;;;;;;1.72;100.00;100194.56;5116147;28;20055;-51
2021/12/23 00:03:37;;;;;;;58.03;25.48;;;;;;;1.76;100.00;100198.78;5117000;28;20438;-51
2021/12/23 00:06:05;;;;;;;54.53;24.48;;;;;;;1.80;100.00;100182.09;5116675;28;20058;-51
2021/12/23 00:08:34;;;;;;;57.92;25.85;;;;;;;1.76;100.00;100180.47;5116077;28;20055;-51
2021/12/23 00:11:04;;;;;;;60.70;25.77;;;;;;;1.81;100.00;100188.19;5116495;28;20056;-51
2021/12/23 00:13:33;;;;;;;62.97;28.45;;;;;;;1.97;100.00;100189.41;5115304;28;20051;-50
2021/12/23 00:16:04;;;;;;;67.10;27.98;;;;;;;1.97;100.00;100173.72;5115624;28;20059;-51
2021/12/23 00:18:47;;;;;;;62.45;27.00;;;;;;;1.99;100.00;100181.53;5116488;28;20056;-51
2021/12/23 00:24:01;;;;;;;56.58;25.17;;;;;;;2.11;100.00;100183.75;5116645;28;20398;-51
2021/12/23 00:26:31;;;;;;;62.30;25.50;;;;;;;2.10;100.00;100189.91;5115840;28;20067;-51
2021/12/23 00:28:59;;;;;;;72.70;30.27;;;;;;;2.13;100.00;100187.16;5116514;28;20060;-51
2021/12/23 00:31:27;;;;;;;72.03;27.48;;;;;;;2.14;100.00;100181.03;5115170;28;20538;-51
2021/12/23 00:33:56;;;;;;;66.97;28.08;;;;;;;2.08;100.00;100175.97;5114985;28;20087;-51
2021/12/23 00:36:25;;;;;;;61.88;24.65;;;;;;;2.18;100.00;100190.47;5115400;28;20108;-51
2021/12/23 00:38:56;;;;;;;74.00;27.98;;;;;;;2.13;100.00;100188.94;5115503;28;20052;-51
2021/12/23 00:41:30;;;;;;;58.33;26.25;;;;;;;2.11;100.00;100180.28;5114816;28;20112;-51
2021/12/23 00:44:00;;;;;;;64.72;25.48;;;;;;;2.11;100.00;100191.59;5114767;28;20055;-50
2021/12/23 00:46:28;;;;;;;58.38;24.92;;;;;;;2.12;100.00;100182.84;5114827;27;20056;-51
2021/12/23 00:48:56;;;;;;;64.38;27.35;;;;;;;2.10;100.00;100174.19;5114940;28;20051;-51
2021/12/23 00:51:25;;;;;;;65.22;26.45;;;;;;;2.13;100.00;100171.44;5114970;28;20047;-51
2021/12/23 00:54:02;;;;;;;58.60;24.42;;;;;;;2.13;100.00;100168.00;5116202;28;20055;-51
2021/12/23 00:56:31;;;;;;;65.25;27.83;;;;;;;2.03;100.00;100156.97;5115546;28;20051;-51
2021/12/23 00:59:01;;;;;;;65.93;25.23;;;;;;;2.03;100.00;100165.69;5114560;28;20052;-51
2021/12/23 01:01:30;;;;;;;71.10;27.90;;;;;;;2.04;100.00;100158.69;5115770;28;20060;-50
2021/12/23 01:03:59;;;;;;;63.25;27.00;;;;;;;1.99;100.00;100163.22;5114600;28;20137;-51
2021/12/23 01:06:27;;;;;;;58.28;24.95;;;;;;;2.00;100.00;100160.56;5114759;28;20526;-51
2021/12/23 01:08:55;;;;;;;61.47;27.60;;;;;;;2.00;100.00;100172.75;5115828;28;20125;-51
2021/12/23 01:11:24;;;;;;;62.35;26.10;;;;;;;1.98;100.00;100164.09;5114681;28;20056;-51
2021/12/23 01:14:02;;;;;;;68.22;25.73;;;;;;;1.97;100.00;100149.34;5114359;28;20529;-51
2021/12/23 01:16:49;;;;;;;63.63;26.77;;;;;;;2.00;100.00;100147.47;5115304;28;20055;-51
2021/12/23 01:19:18;;;;;;;63.50;25.48;;;;;;;1.96;100.00;100150.22;5114578;28;20058;-51
2021/12/23 01:21:46;;;;;;;61.80;26.17;;;;;;;1.96;100.00;100147.59;5114927;28;20048;-51
2021/12/23 01:24:14;;;;;;;62.00;25.67;;;;;;;1.94;100.00;100141.56;5114569;28;20056;-51
2021/12/23 01:26:43;;;;;;;61.67;24.92;;;;;;;1.95;100.00;100138.03;5114533;28;20052;-51
2021/12/23 01:29:11;;;;;;;52.67;24.35;;;;;;;1.94;100.00;100141.56;5114832;28;20055;-51
2021/12/23 01:31:42;;;;;;;56.70;24.40;;;;;;;1.89;100.00;100146.09;5114506;28;20055;-51
2021/12/23 01:34:11;;;;;;;56.17;23.88;;;;;;;1.84;100.00;100141.84;5114164;28;20137;-51
2021/12/23 01:36:39;;;;;;;57.22;25.15;;;;;;;1.85;100.00;100138.34;5114640;28;20067;-51
2021/12/23 01:39:07;;;;;;;64.10;25.63;;;;;;;1.83;100.00;100140.16;5114444;28;20052;-51
2021/12/23 01:41:36;;;;;;;51.85;23.45;;;;;;;1.75;100.00;100136.94;5114380;28;20143;-51
2021/12/23 01:44:05;;;;;;;60.75;26.17;;;;;;;1.76;100.00;100145.63;5115579;28;20048;-51
2021/12/23 01:46:34;;;;;;;63.65;25.77;;;;;;;1.73;100.00;100149.22;5115142;28;20056;-51
2021/12/23 01:49:04;;;;;;;61.25;25.70;;;;;;;1.80;100.00;100140.25;5118648;28;20058;-51
2021/12/23 01:51:33;;;;;;;57.53;24.80;;;;;;;1.80;100.00;100134.16;5118163;28;20055;-51
2021/12/23 01:54:01;;;;;;;61.28;26.02;;;;;;;1.81;100.00;100133.25;5118049;28;20060;-51
2021/12/23 01:56:29;;;;;;;56.72;25.35;;;;;;;1.80;100.00;100131.53;5118643;28;20380;-51
2021/12/23 01:58:58;;;;;;;60.78;23.77;;;;;;;1.80;100.00;100132.41;5118521;28;20051;-51
2021/12/23 02:01:26;;;;;;;58.63;24.75;;;;;;;1.77;100.00;100114.19;5118243;28;20067;-51
2021/12/23 02:03:55;;;;;;;56.28;25.05;;;;;;;1.81;100.00;100115.78;5117907;28;20085;-51
2021/12/23 02:06:24;;;;;;;63.35;24.13;;;;;;;1.80;100.00;100114.09;5118479;28;20070;-51
2021/12/23 02:08:52;;;;;;;75.60;29.10;;;;;;;1.84;100.00;100115.69;5118429;28;20052;-52
2021/12/23 02:11:21;;;;;;;56.30;24.17;;;;;;;1.90;100.00;100116.41;5118513;28;20400;-51
2021/12/23 02:13:49;;;;;;;59.38;25.33;;;;;;;1.89;100.00;100118.19;5119188;28;20067;-51
2021/12/23 02:16:17;;;;;;;59.13;25.17;;;;;;;1.89;100.00;100112.94;5118868;28;20082;-51
2021/12/23 02:18:45;;;;;;;63.03;25.25;;;;;;;1.88;100.00;100110.38;5118522;28;20081;-51
2021/12/23 02:21:15;;;;;;;62.72;25.77;;;;;;;1.89;100.00;100106.88;5118155;28;20063;-51
2021/12/23 02:23:43;;;;;;;62.00;25.45;;;;;;;1.88;100.00;100110.38;5118712;28;20060;-51
2021/12/23 02:26:11;;;;;;;68.40;24.45;;;;;;;1.90;100.00;100112.06;5118063;28;20056;-51
2021/12/23 02:28:40;;;;;;;60.58;26.55;;;;;;;1.92;100.00;100117.25;5118023;28;20062;-51
2021/12/23 02:31:08;;;;;;;58.45;23.35;;;;;;;1.96;100.00;100114.44;5117881;28;20052;-51
2021/12/23 02:33:37;;;;;;;58.83;23.88;;;;;;;2.02;100.00;100114.25;5117293;28;20087;-51
2021/12/23 02:36:05;;;;;;;62.78;24.15;;;;;;;2.02;100.00;100114.25;5117537;28;20052;-51
2021/12/23 02:38:35;;;;;;;61.72;24.08;;;;;;;2.01;100.00;100116.91;5117518;28;20051;-51
2021/12/23 02:41:03;;;;;;;54.83;22.60;;;;;;;2.00;100.00;100104.72;5117733;28;20055;-51
2021/12/23 02:43:36;;;;;;;41.28;17.65;;;;;;;2.05;100.00;100110.66;5117722;28;20134;-51
2021/12/23 02:46:06;;;;;;;59.67;22.98;;;;;;;2.08;100.00;100115.81;5118554;28;20058;-51
2021/12/23 02:48:36;;;;;;;62.75;22.58;;;;;;;2.08;100.00;100101.88;5117337;28;20051;-51
2021/12/23 02:51:07;;;;;;;53.95;21.40;;;;;;;2.10;100.00;100106.16;5117019;28;20519;-51
2021/12/23 02:53:37;;;;;;;57.70;23.13;;;;;;;2.12;100.00;100101.72;5117237;28;20522;-51
2021/12/23 02:56:07;;;;;;;59.63;22.60;;;;;;;2.12;100.00;100103.47;5118146;28;20052;-51
2021/12/23 02:58:36;;;;;;;60.13;23.83;;;;;;;2.11;100.00;100109.63;5116034;28;20056;-51
2021/12/23 03:01:07;;;;;;;55.42;20.90;;;;;;;2.08;100.00;100107.09;5118282;28;20051;-51
2021/12/23 03:03:36;;;;;;;49.95;21.27;;;;;;;2.13;100.00;100106.03;5117484;28;20090;-51
2021/12/23 03:06:05;;;;;;;59.03;23.08;;;;;;;2.18;100.00;100093.66;5116968;27;20058;-51
2021/12/23 03:08:36;;;;;;;56.30;20.90;;;;;;;2.19;100.00;100100.59;5116960;28;20533;-51
2021/12/23 03:11:06;;;;;;;54.17;21.48;;;;;;;2.23;100.00;100102.19;5117643;28;20063;-51
2021/12/23 03:13:35;;;;;;;58.42;21.90;;;;;;;2.23;100.00;100102.19;5117988;28;20052;-51
2021/12/23 03:16:04;;;;;;;51.60;20.52;;;;;;;2.20;100.00;100099.72;5117955;28;20074;-52
2021/12/23 03:18:33;;;;;;;52.10;21.13;;;;;;;2.28;100.00;100101.19;5117079;28;20551;-51
2021/12/23 03:21:02;;;;;;;49.65;20.75;;;;;;;2.30;100.00;100099.38;5117040;28;20064;-52
2021/12/23 03:23:31;;;;;;;55.53;20.73;;;;;;;2.35;100.00;100098.28;5117628;28;20059;-51
2021/12/23 03:26:00;;;;;;;55.20;21.65;;;;;;;2.32;100.00;100084.47;5117180;28;20051;-51
2021/12/23 03:28:29;;;;;;;64.82;21.55;;;;;;;2.41;100.00;100084.16;5117267;28;20061;-51
2021/12/23 03:30:57;;;;;;;61.88;22.02;;;;;;;2.40;100.00;100085.06;5116525;28;20059;-51
2021/12/23 03:33:26;;;;;;;58.58;22.40;;;;;;;2.46;100.00;100087.47;5116092;28;20105;-51
2021/12/23 03:35:54;;;;;;;62.50;22.73;;;;;;;2.50;100.00;100081.19;5116722;28;20047;-51
2021/12/23 03:38:23;;;;;;;53.88;20.95;;;;;;;2.57;100.00;100090.56;5116690;28;20055;-51
2021/12/23 03:40:51;;;;;;;58.28;21.40;;;;;;;2.57;100.00;100089.69;5116971;28;20067;-51
2021/12/23 03:43:22;;;;;;;52.65;21.20;;;;;;;2.57;100.00;100072.25;5117208;28;20064;-52
2021/12/23 03:45:52;;;;;;;55.95;20.58;;;;;;;2.54;100.00;100079.31;5116159;28;20134;-51
2021/12/23 03:48:20;;;;;;;54.47;21.50;;;;;;;2.67;100.00;100071.88;5117407;28;20056;-51
2021/12/23 03:50:49;;;;;;;54.15;21.42;;;;;;;2.67;100.00;100058.78;5116398;28;20507;-51
2021/12/23 03:53:18;;;;;;;56.42;20.13;;;;;;;2.76;100.00;100068.94;5117167;28;20070;-51
2021/12/23 03:55:46;;;;;;;48.92;20.75;;;;;;;2.78;100.00;100064.50;5116318;28;20063;-50
2021/12/23 03:58:15;;;;;;;46.83;20.35;;;;;;;2.85;100.00;100063.34;5116438;28;20062;-51
2021/12/23 04:00:47;;;;;;;66.45;21.55;;;;;;;2.87;100.00;100065.91;5116259;28;20074;-51
2021/12/23 04:03:15;;;;;;;50.42;19.42;;;;;;;2.88;100.00;100060.63;5116177;28;20142;-51
2021/12/23 04:05:44;;;;;;;51.05;19.60;;;;;;;2.92;100.00;100054.34;5116895;28;20056;-51
2021/12/23 04:08:12;;;;;;;58.55;20.23;;;;;;;2.97;100.00;100052.41;5115980;28;20055;-51
2021/12/23 04:10:40;;;;;;;51.60;20.88;;;;;;;2.94;100.00;100051.66;5115306;28;20064;-51
2021/12/23 04:13:08;;;;;;;65.93;21.63;;;;;;;2.98;100.00;100058.53;5115703;28;20055;-50
2021/12/23 04:15:37;;;;;;;75.82;22.33;;;;;;;2.94;100.00;100051.66;5115501;28;20056;-51
2021/12/23 04:18:07;;;;;;;56.00;20.42;;;;;;;2.83;100.00;100036.38;5115569;28;20507;-52
2021/12/23 04:20:46;;;;;;;58.72;21.23;;;;;;;3.01;100.00;100057.53;5116056;28;20060;-51
2021/12/23 04:23:14;;;;;;;57.47;20.10;;;;;;;2.96;100.00;100042.84;5116735;27;20058;-51
2021/12/23 04:25:42;;;;;;;55.33;20.60;;;;;;;2.98;100.00;100051.50;5115725;28;20068;-51
2021/12/23 04:28:10;;;;;;;57.92;20.23;;;;;;;2.96;100.00;100049.88;5115418;28;20546;-51
2021/12/23 04:30:38;;;;;;;56.42;20.92;;;;;;;3.01;100.00;100049.66;5115311;28;20136;-51
2021/12/23 04:33:08;;;;;;;58.60;19.70;;;;;;;3.04;100.00;100054.81;5115277;28;20051;-51
2021/12/23 04:35:37;;;;;;;58.25;21.67;;;;;;;3.02;100.00;100041.75;5115205;28;20070;-51
2021/12/23 04:38:05;;;;;;;61.22;20.88;;;;;;;2.96;100.00;100024.50;5115542;28;20056;-51
2021/12/23 04:40:34;;;;;;;63.72;21.23;;;;;;;3.04;100.00;100037.31;5116311;28;20054;-51
2021/12/23 04:43:03;;;;;;;54.50;20.70;;;;;;;3.06;100.00;100037.25;5115105;28;20062;-52
2021/12/23 04:45:31;;;;;;;68.18;21.77;;;;;;;3.06;100.00;100034.63;5116366;28;20094;-51
2021/12/23 04:48:01;;;;;;;63.75;19.77;;;;;;;3.06;100.00;100029.38;5115319;28;20143;-51
2021/12/23 04:50:31;;;;;;;81.43;20.67;;;;;;;3.05;100.00;100015.44;5114969;28;20052;-51
2021/12/23 04:52:59;;;;;;;61.95;22.08;;;;;;;3.12;100.00;100016.06;5114965;28;20070;-51
2021/12/23 04:55:28;;;;;;;65.22;20.95;;;;;;;3.11;100.00;100001.22;5115501;28;20400;-51
2021/12/23 04:57:57;;;;;;;92.28;22.60;;;;;;;3.21;100.00;100006.97;5115121;28;20052;-51
2021/12/23 05:00:25;;;;;;;75.82;20.52;;;;;;;3.14;100.00;100002.00;5114883;28;20056;-51
2021/12/23 05:02:53;;;;;;;86.30;21.98;;;;;;;3.15;100.00;100015.94;5115353;28;20064;-51
2021/12/23 05:05:21;;;;;;;99.28;23.17;;;;;;;3.13;100.00;100004.66;5115397;28;20060;-51
2021/12/23 05:07:51;;;;;;;98.22;23.38;;;;;;;3.18;100.00;100013.19;5115302;28;20059;-51
2021/12/23 05:10:20;;;;;;;70.80;23.50;;;;;;;3.16;100.00;100001.91;5115034;28;20051;-51
2021/12/23 05:12:49;;;;;;;75.40;22.33;;;;;;;3.16;100.00;100001.91;5114912;28;20051;-51
2021/12/23 05:15:19;;;;;;;68.75;23.13;;;;;;;3.16;100.00;99994.03;5115326;28;20051;-51
2021/12/23 05:17:48;;;;;;;66.93;22.23;;;;;;;3.21;100.00;99999.97;5114739;28;20052;-51
2021/12/23 05:20:18;;;;;;;64.25;23.95;;;;;;;3.17;100.00;99993.13;5114624;28;20056;-51
2021/12/23 05:22:46;;;;;;;63.45;23.45;;;;;;;3.15;100.00;99989.72;5114887;28;20059;-51
2021/12/23 05:25:16;;;;;;;76.22;22.90;;;;;;;3.12;100.00;99985.44;5114308;28;20056;-51
2021/12/23 05:27:46;;;;;;;68.95;23.23;;;;;;;3.03;100.00;99969.25;5114767;28;20055;-51
2021/12/23 05:30:17;;;;;;;65.25;23.38;;;;;;;3.11;100.00;99980.25;5115422;28;20071;-51
2021/12/23 05:32:46;;;;;;;70.60;21.95;;;;;;;3.11;100.00;99980.25;5114274;28;20056;-51
2021/12/23 05:35:16;;;;;;;64.00;23.70;;;;;;;3.12;100.00;99977.59;5114233;28;20102;-51
2021/12/23 05:37:45;;;;;;;74.80;25.75;;;;;;;3.08;100.00;99975.16;5114750;28;20052;-51
2021/12/23 05:40:18;;;;;;;60.28;22.17;;;;;;;3.08;100.00;99983.03;5115306;28;20177;-51
2021/12/23 05:42:48;;;;;;;60.65;23.85;;;;;;;3.08;100.00;99978.63;5114395;28;20063;-51
2021/12/23 05:45:16;;;;;;;62.47;23.15;;;;;;;3.02;100.00;99988.50;5115552;28;20068;-51
2021/12/23 05:47:45;;;;;;;61.70;21.73;;;;;;;2.96;100.00;99979.97;5114373;28;20051;-51
2021/12/23 05:50:14;;;;;;;61.58;21.90;;;;;;;2.97;100.00;99981.66;5114658;28;20067;-50
2021/12/23 05:52:43;;;;;;;57.10;22.98;;;;;;;3.00;100.00;99982.47;5114269;28;20062;-51
2021/12/23 05:55:13;;;;;;;59.28;23.77;;;;;;;2.96;100.00;99976.50;5114712;28;20059;-51
2021/12/23 05:57:44;;;;;;;56.83;21.05;;;;;;;2.95;100.00;99975.63;5115681;28;20051;-51
2021/12/23 06:00:15;;;;;;;56.72;21.83;;;;;;;2.94;100.00;99975.69;5114978;28;20067;-51
2021/12/23 06:02:43;;;;;;;;;;;;;;;2.92;100.00;99974.91;5114422;28;20063;-51
2021/12/23 06:05:12;;;;;;;50.55;19.45;;;;;;;3.05;100.00;99970.88;5114248;28;19995;-51
2021/12/23 06:07:41;;;;;;;61.38;21.88;;;;;;;3.08;100.00;99973.38;5114384;28;20062;-52
2021/12/23 06:10:10;;;;;;;63.70;22.05;;;;;;;3.07;100.00;99963.81;5114456;28;20055;-51
2021/12/23 06:12:38;;;;;;;56.60;23.35;;;;;;;3.10;100.00;99968.09;5114431;28;20059;-51
2021/12/23 06:15:09;;;;;;;59.85;24.42;;;;;;;3.12;100.00;99966.25;5114099;28;20055;-51
2021/12/23 06:17:37;;;;;;;57.70;24.00;;;;;;;3.15;100.00;99984.47;5114763;28;20052;-51
2021/12/23 06:20:08;;;;;;;61.38;22.85;;;;;;;3.05;100.00;99983.16;5114010;28;20051;-51
2021/12/23 06:22:37;;;;;;;55.83;22.45;;;;;;;3.00;100.00;99982.47;5113727;28;20431;-50
2021/12/23 06:25:07;;;;;;;61.75;24.52;;;;;;;3.03;100.00;99982.34;5113696;28;20556;-51
2021/12/23 06:27:36;;;;;;;54.78;23.02;;;;;;;3.03;100.00;99996.31;5113750;28;20063;-51
2021/12/23 06:30:15;;;;;;;63.47;24.67;;;;;;;2.89;100.00;99999.47;5114154;28;20066;-51
2021/12/23 06:32:43;;;;;;;64.30;24.17;;;;;;;2.84;100.00;99990.94;5115282;28;20055;-50
2021/12/23 06:35:13;;;;;;;67.60;25.45;;;;;;;2.81;100.00;99993.66;5118238;28;20051;-51
2021/12/23 06:37:42;;;;;;;66.70;27.35;;;;;;;2.78;100.00;99993.78;5118169;28;20052;-51
2021/12/23 06:40:11;;;;;;;75.40;28.08;;;;;;;2.77;100.00;99992.06;5117563;28;20058;-52
2021/12/23 06:42:39;;;;;;;65.47;27.48;;;;;;;2.72;100.00;99994.88;5117977;28;20501;-51
2021/12/23 06:45:10;;;;;;;65.32;26.25;;;;;;;2.63;100.00;99989.97;5117621;28;20063;-52
2021/12/23 06:47:38;;;;;;;69.22;26.65;;;;;;;2.67;100.00;99990.69;5118531;28;20090;-51
2021/12/23 06:50:09;;;;;;;66.35;25.27;;;;;;;2.80;100.00;100002.41;5117321;28;20062;-51
2021/12/23 06:52:38;;;;;;;65.20;23.98;;;;;;;2.81;100.00;100012.00;5118520;28;20059;-51
2021/12/23 06:55:08;;;;;;;63.47;25.10;;;;;;;2.73;100.00;100014.06;5116896;28;20062;-51
2021/12/23 06:57:36;;;;;;;65.75;24.98;;;;;;;2.71;100.00;100023.75;5117618;27;20070;-51
2021/12/23 07:00:06;;;;;;;65.53;25.67;;;;;;;2.74;100.00;100023.59;5116646;28;20056;-51
2021/12/23 07:02:39;;;;;;;68.45;26.08;;;;;;;2.84;100.00;100024.13;5116858;28;20055;-51
2021/12/23 07:05:09;;;;;;;59.08;24.45;;;;;;;2.83;100.00;100017.19;5116797;28;20062;-51
2021/12/23 07:07:50;;;;;;;64.70;26.02;;;;;;;2.92;100.00;100028.16;5116610;28;20055;-51
2021/12/23 07:10:18;;;;;;;39.85;17.70;;;;;;;2.93;100.00;100018.53;5117828;28;20514;-51
2021/12/23 07:12:47;;;;;;;57.75;24.48;;;;;;;2.93;100.00;100014.13;5116879;28;20052;-51
2021/12/23 07:15:15;;;;;;;58.53;25.25;;;;;;;3.00;100.00;100008.69;5116802;28;20058;-50
2021/12/23 07:17:45;;;;;;;60.17;24.05;;;;;;;3.02;100.00;100006.84;5116782;28;20062;-51
2021/12/23 07:20:13;;;;;;;59.47;25.52;;;;;;;3.01;100.00;100012.97;5116890;28;20051;-51
2021/12/23 07:22:42;;;;;;;62.13;25.38;;;;;;;3.00;100.00;100000.81;5116363;28;20052;-51
2021/12/23 07:25:12;;;;;;;58.95;24.98;;;;;;;3.03;100.00;100008.56;5117279;28;20047;-51
2021/12/23 07:27:41;;;;;;;57.10;24.85;;;;;;;3.02;100.00;100014.72;5116324;28;20063;-51
2021/12/23 07:30:10;;;;;;;58.85;23.88;;;;;;;3.01;100.00;100007.75;5116834;28;20055;-51
2021/12/23 07:32:39;;;;;;;63.70;26.33;;;;;;;3.04;100.00;100005.00;5116427;28;20055;-52
2021/12/23 07:35:10;;;;;;;56.95;25.58;;;;;;;2.98;100.00;100004.34;5117143;28;20149;-52
2021/12/23 07:37:43;;;;;;;55.00;25.15;;;;;;;3.00;100.00;100000.81;5097180;28;20059;-51
2021/12/23 07:40:14;;;;;;;52.22;23.92;;;;;;;2.96;100.00;99998.31;5097109;28;20104;-51
2021/12/23 07:42:52;;;;;;;58.08;23.45;;;;;;;3.12;100.00;100008.19;5096856;28;20051;-51
2021/12/23 07:45:21;;;;;;;49.83;21.33;;;;;;;3.23;100.00;100019.13;5102986;28;20411;-51
2021/12/23 07:47:49;;;;;;;44.80;21.95;;;;;;;3.32;100.00;100018.72;5116568;28;20051;-51
2021/12/23 07:50:19;;;;;;;51.28;21.90;;;;;;;3.54;100.00;100018.72;5116034;28;20058;-51
2021/12/23 07:52:47;;;;;;;49.90;22.80;;;;;;;3.57;100.00;100015.13;5116118;28;20061;-51
2021/12/23 07:55:15;;;;;;;51.72;21.23;;;;;;;3.60;100.00;100028.13;5115342;28;20060;-49
2021/12/23 07:57:44;;;;;;;51.17;21.35;;;;;;;3.74;100.00;100037.19;5115918;28;20067;-51
2021/12/23 08:00:13;;;;;;;47.22;21.55;;;;;;;3.89;100.00;100037.38;5116138;28;20062;-51
2021/12/23 08:02:41;;;;;;;44.17;21.27;;;;;;;3.90;100.00;100033.88;5116416;28;20554;-51
2021/12/23 08:05:11;;;;;;;44.55;21.15;;;;;;;4.13;100.00;100039.06;5115576;28;20055;-51
2021/12/23 08:07:40;;;;;;;45.88;21.25;;;;;;;4.17;100.00;100035.34;5115788;28;20499;-51
2021/12/23 08:10:09;;;;;;;47.72;21.90;;;;;;;4.41;100.00;100039.56;5116045;28;20056;-52
2021/12/23 08:12:37;;;;;;;45.17;21.40;;;;;;;4.46;100.00;100037.56;5115199;28;20051;-51
2021/12/23 08:15:07;;;;;;;46.60;20.38;;;;;;;4.59;100.00;100052.78;5116012;28;20056;-52
2021/12/23 08:17:36;;;;;;;49.22;20.80;;;;;;;4.67;100.00;100040.16;5116478;28;20098;-52
2021/12/23 08:20:10;;;;;;;48.55;21.15;;;;;;;4.68;100.00;100034.00;5115865;28;20051;-52
2021/12/23 08:22:39;;;;;;;48.38;20.40;;;;;;;4.71;100.00;100025.97;5115465;28;20062;-51
2021/12/23 08:25:09;;;;;;;45.70;20.52;;;;;;;4.88;100.00;100032.25;5115217;28;20059;-51
2021/12/23 08:27:38;;;;;;;50.58;22.30;;;;;;;4.92;100.00;100033.78;5115394;28;20055;-51
2021/12/23 08:30:09;;;;;;;51.05;21.75;;;;;;;4.96;100.00;100035.34;5115230;28;20052;-51
2021/12/23 08:32:38;;;;;;;45.60;21.52;;;;;;;5.03;100.00;100034.16;5115328;28;20098;-51
2021/12/23 08:35:07;;;;;;;42.30;20.23;;;;;;;5.11;100.00;100028.53;5115636;28;20086;-52
2021/12/23 08:37:36;;;;;;;47.05;20.25;;;;;;;5.21;100.00;100020.13;5115357;28;20071;-51
2021/12/23 08:40:08;;;;;;;44.97;22.27;;;;;;;5.25;100.00;100018.22;5115790;28;20056;-52
2021/12/23 08:42:36;;;;;;;44.13;21.27;;;;;;;5.31;100.00;100024.94;5114923;28;20052;-48
2021/12/23 08:45:07;;;;;;;49.10;22.00;;;;;;;5.44;100.00;100014.69;5115996;28;20135;-52
2021/12/23 08:47:35;;;;;;;42.97;20.27;;;;;;;5.52;100.00;100013.38;5114868;28;20056;-50
2021/12/23 08:50:06;;;;;;;43.47;19.33;;;;;;;5.64;100.00;100021.63;5115323;28;20495;-51
2021/12/23 08:52:34;;;;;;;36.20;17.80;;;;;;;5.72;100.00;100014.19;5116160;28;20396;-51
2021/12/23 08:55:07;;;;;;;35.03;17.83;;;;;;;5.84;100.00;100013.56;5114633;28;20166;-50
2021/12/23 08:57:35;;;;;;;;;;;;;;;6.00;100.00;100012.81;5116355;28;20052;-52
2021/12/23 09:00:04;;;;;;;27.77;15.55;;;;;;;6.14;100.00;100012.97;5115484;28;19919;-52
2021/12/23 09:02:32;;;;;;;34.28;16.40;;;;;;;6.25;100.00;99997.44;5115947;28;20078;-52
2021/12/23 09:05:01;;;;;;;38.28;16.02;;;;;;;6.38;100.00;99996.81;5115920;28;20095;-51
2021/12/23 09:07:29;;;;;;;31.85;15.98;;;;;;;6.44;100.00;99980.66;5114318;28;20511;-51
2021/12/23 09:09:57;;;;;;;27.75;14.18;;;;;;;6.61;100.00;99985.06;5114960;28;20057;-51
2021/12/23 09:12:27;;;;;;;25.63;12.85;;;;;;;6.66;100.00;99973.31;5115291;28;20063;-52
2021/12/23 09:14:55;;;;;;;22.88;12.85;;;;;;;6.74;100.00;99987.88;5114426;28;20052;-51
2021/12/23 09:17:24;;;;;;;24.40;13.40;;;;;;;6.81;100.00;99978.72;5114751;28;20055;-51
2021/12/23 09:19:52;;;;;;;22.10;13.70;;;;;;;6.88;100.00;99974.78;5114632;28;20055;-50
2021/12/23 09:22:20;;;;;;;26.25;12.70;;;;;;;6.82;100.00;99964.56;5114832;28;20051;-52
2021/12/23 09:24:52;;;;;;;20.50;12.00;;;;;;;6.76;100.00;99970.16;5114285;28;20051;-49
2021/12/23 09:27:29;;;;;;;20.33;11.85;;;;;;;6.91;100.00;99963.22;5115408;28;20067;-51
2021/12/23 09:32:53;;;;;;;21.40;12.23;;;;;;;7.11;100.00;99970.88;5115137;28;20052;-51
2021/12/23 09:35:42;;;;;;;26.23;13.30;;;;;;;7.10;100.00;99966.53;5114446;28;20503;-51
2021/12/23 09:38:11;;;;;;;24.33;12.70;;;;;;;7.25;100.00;99957.75;5115757;28;20082;-52
2021/12/23 09:40:40;;;;;;;19.65;11.75;;;;;;;7.48;100.00;99967.91;5115128;28;20051;-52
2021/12/23 09:43:09;;;;;;;27.27;13.50;;;;;;;7.58;100.00;99958.50;5114836;28;20052;-52
2021/12/23 09:45:41;;;;;;;26.27;14.48;;;;;;;7.85;100.00;99963.97;5114508;28;20525;-52
2021/12/23 09:48:09;;;;;;;22.75;12.25;;;;;;;8.00;100.00;99960.41;5115014;28;20059;-52
2021/12/23 09:50:40;;;;;;;22.75;11.52;;;;;;;8.51;100.00;99954.69;5114549;28;20067;-52
2021/12/23 09:53:09;;;;;;;19.27;10.50;;;;;;;9.00;100.00;99963.13;5114375;28;20438;-51
2021/12/23 09:55:38;;;;;;;13.30;8.60;;;;;;;9.82;100.00;99977.16;5115133;28;20062;-51
2021/12/23 09:58:07;;;;;;;13.02;8.23;;;;;;;10.63;100.00;99969.88;5114735;28;20059;-51
2021/12/23 10:00:45;;;;;;;18.25;6.68;;;;;;;11.37;100.00;99965.41;5114819;28;20055;-51
2021/12/23 10:03:14;;;;;;;10.07;6.22;;;;;;;12.17;94.42;99969.16;5115370;28;20055;-50
2021/12/23 10:05:42;;;;;;;11.93;5.72;;;;;;;12.52;89.69;99966.41;5114867;28;20081;-51
2021/12/23 10:08:13;;;;;;;10.13;5.47;;;;;;;12.47;89.61;99978.38;5116827;28;20143;-51
2021/12/23 10:10:46;;;;;;;8.18;5.68;;;;;;;12.10;91.77;99984.72;5118711;28;20411;-52
2021/12/23 10:33:10;;;;;;;11.50;6.35;;;;;;;10.10;100.00;100020.34;5117424;28;20063;-50
2021/12/23 10:38:28;;;;;;;9.98;6.63;;;;;;;9.85;100.00;100028.13;5117791;28;20052;-51
2021/12/23 10:40:58;;;;;;;11.10;6.97;;;;;;;9.69;100.00;100021.31;5117732;28;20507;-51
2021/12/23 10:43:30;;;;;;;11.20;7.22;;;;;;;9.45;100.00;100051.09;5118417;28;20051;-52
2021/12/23 10:46:01;;;;;;;10.93;7.03;;;;;;;9.32;100.00;100036.97;5117120;28;20056;-51
2021/12/23 10:48:33;;;;;;;13.40;8.73;;;;;;;9.43;100.00;100032.66;5117035;28;20290;-52
2021/12/23 10:51:06;;;;;;;11.68;7.97;;;;;;;10.14;100.00;100033.28;5117291;28;20056;-51
2021/12/23 10:53:54;;;;;;;12.60;7.65;;;;;;;10.57;100.00;100021.53;5117860;28;20058;-52
2021/12/23 10:59:14;;;;;;;11.68;7.00;;;;;;;10.99;95.68;100032.72;5117085;28;20055;-52
2021/12/23 11:02:00;;;;;;;;;;;;;;;10.72;96.79;100023.13;5117612;28;20048;-51
2021/12/23 11:04:36;;;;;;;10.98;6.88;;;;;;;10.33;99.63;100018.78;5116255;28;21558;-52
2021/12/23 11:07:14;;;;;;;31.70;14.55;;;;;;;10.38;100.00;100028.13;5117213;28;20051;-51
2021/12/23 11:10:16;;;;;;;11.48;7.50;;;;;;;10.10;100.00;100007.06;5118324;28;20070;-52
2021/12/23 11:35:51;;;;;;;11.05;7.05;;;;;;;9.98;100.00;100017.56;5115910;28;20052;-52
2021/12/23 11:38:30;;;;;;;10.48;6.75;;;;;;;10.06;100.00;100017.03;5116284;28;20066;-51
2021/12/23 11:41:04;;;;;;;13.98;7.40;;;;;;;10.18;100.00;100015.34;5116586;28;20058;-52
2021/12/23 11:43:47;;;;;;;12.02;7.18;;;;;;;10.22;100.00;100011.53;5116821;28;20055;-51
2021/12/23 11:46:18;;;;;;;13.00;7.10;;;;;;;10.19;100.00;100002.00;5116894;28;20057;-52
2021/12/23 11:48:51;;;;;;;9.50;6.07;;;;;;;10.35;100.00;100001.81;5117576;28;20059;-52
2021/12/23 11:51:28;;;;;;;17.20;7.90;;;;;;;10.32;100.00;100001.19;5115565;28;20419;-51
2021/12/23 11:53:59;;;;;;;9.85;6.25;;;;;;;10.25;100.00;100000.72;5116354;28;20059;-52
2021/12/23 11:56:27;;;;;;;13.70;6.30;;;;;;;10.21;100.00;99996.59;5115863;28;20055;-51
2021/12/23 11:58:58;;;;;;;12.55;6.80;;;;;;;10.17;100.00;100008.34;5115460;28;20060;-52
2021/12/23 12:01:30;;;;;;;11.68;6.75;;;;;;;10.19;100.00;100004.66;5115987;28;20130;-52
2021/12/23 12:04:01;;;;;;;11.40;6.80;;;;;;;10.16;100.00;99998.72;5115861;28;20068;-51
2021/12/23 12:06:32;;;;;;;9.20;6.25;;;;;;;10.21;100.00;100001.91;5115505;28;20060;-49
2021/12/23 12:09:14;;;;;;;12.30;6.82;;;;;;;10.21;100.00;99992.13;5116244;28;20074;-50
2021/12/23 12:11:48;;;;;;;12.13;6.93;;;;;;;10.22;100.00;99991.19;5115189;28;20055;-52
2021/12/23 12:14:34;;;;;;;12.07;6.93;;;;;;;10.16;100.00;99988.13;5114331;28;20527;-52
2021/12/23 12:17:40;;;;;;;12.63;7.25;;;;;;;10.09;100.00;99987.69;5109483;28;20051;-52
2021/12/23 12:20:35;;;;;;;12.77;7.40;;;;;;;10.10;100.00;99983.22;5115907;28;20055;-51